UGC weather

Urgench Airport
Urgench, Xorazm, Uzbekistan

Public forecast

Using degrees Celsius for public forecast. Weather courtesy of forecast.io.

METAR (pilot weather report)

Retrieved 2019/09/22 23:30 UTC (13 minutes ago):

UTNU 222330Z 17004KT 8000 NSC 09/06 Q1024 R31/CLRD70 NOSIG

TAF (pilot weather forecast)

Retrieved 2019/09/22 18:09 UTC (6 hours ago):

TAF UTNU 221700Z 2218/2318 28010G20KT 8000 NSC TEMPO 2218/2224 33006KT